sensor_id;sensor_type;location;lat;lon;timestamp;P1;durP1;ratioP1;P2;durP2;ratioP2
57856;SDS011;43683;48.650;9.290;2024-03-08T00:00:13;29.30;;;16.13;;
57856;SDS011;43683;48.650;9.290;2024-03-08T00:02:40;28.27;;;15.10;;
57856;SDS011;43683;48.650;9.290;2024-03-08T00:05:07;28.33;;;15.35;;
57856;SDS011;43683;48.650;9.290;2024-03-08T00:07:34;26.30;;;15.00;;
57856;SDS011;43683;48.650;9.290;2024-03-08T00:10:00;28.92;;;14.40;;
57856;SDS011;43683;48.650;9.290;2024-03-08T00:12:27;25.08;;;14.02;;
57856;SDS011;43683;48.650;9.290;2024-03-08T00:14:53;25.70;;;15.25;;
57856;SDS011;43683;48.650;9.290;2024-03-08T00:17:19;28.65;;;15.43;;
57856;SDS011;43683;48.650;9.290;2024-03-08T00:19:47;23.17;;;13.95;;
57856;SDS011;43683;48.650;9.290;2024-03-08T00:22:14;28.02;;;15.30;;
57856;SDS011;43683;48.650;9.290;2024-03-08T00:24:41;29.75;;;15.30;;
57856;SDS011;43683;48.650;9.290;2024-03-08T00:27:06;25.27;;;15.18;;
57856;SDS011;43683;48.650;9.290;2024-03-08T00:29:33;29.17;;;15.45;;
57856;SDS011;43683;48.650;9.290;2024-03-08T00:31:59;27.08;;;14.40;;
57856;SDS011;43683;48.650;9.290;2024-03-08T00:34:25;24.70;;;13.55;;
57856;SDS011;43683;48.650;9.290;2024-03-08T00:36:50;28.55;;;15.07;;
57856;SDS011;43683;48.650;9.290;2024-03-08T00:39:17;27.17;;;14.25;;
57856;SDS011;43683;48.650;9.290;2024-03-08T00:41:45;23.13;;;13.18;;
57856;SDS011;43683;48.650;9.290;2024-03-08T00:44:10;27.50;;;15.15;;
57856;SDS011;43683;48.650;9.290;2024-03-08T00:46:36;24.65;;;14.18;;
57856;SDS011;43683;48.650;9.290;2024-03-08T00:49:01;26.00;;;14.75;;
57856;SDS011;43683;48.650;9.290;2024-03-08T00:51:27;28.95;;;14.82;;
57856;SDS011;43683;48.650;9.290;2024-03-08T00:53:53;28.13;;;15.80;;
57856;SDS011;43683;48.650;9.290;2024-03-08T00:56:18;26.20;;;14.50;;
57856;SDS011;43683;48.650;9.290;2024-03-08T00:58:44;27.92;;;14.25;;
57856;SDS011;43683;48.650;9.290;2024-03-08T01:01:09;29.13;;;15.23;;
57856;SDS011;43683;48.650;9.290;2024-03-08T01:03:35;28.38;;;14.68;;
57856;SDS011;43683;48.650;9.290;2024-03-08T01:06:01;32.38;;;16.08;;
57856;SDS011;43683;48.650;9.290;2024-03-08T01:08:27;29.33;;;14.48;;
57856;SDS011;43683;48.650;9.290;2024-03-08T01:10:53;28.27;;;15.48;;
57856;SDS011;43683;48.650;9.290;2024-03-08T01:13:18;25.67;;;13.98;;
57856;SDS011;43683;48.650;9.290;2024-03-08T01:15:44;29.63;;;15.38;;
57856;SDS011;43683;48.650;9.290;2024-03-08T01:18:10;29.35;;;15.10;;
57856;SDS011;43683;48.650;9.290;2024-03-08T01:20:36;27.98;;;14.70;;
57856;SDS011;43683;48.650;9.290;2024-03-08T01:23:02;29.80;;;15.30;;
57856;SDS011;43683;48.650;9.290;2024-03-08T01:25:28;26.85;;;15.30;;
57856;SDS011;43683;48.650;9.290;2024-03-08T01:27:54;28.65;;;14.60;;
57856;SDS011;43683;48.650;9.290;2024-03-08T01:30:19;26.55;;;14.57;;
57856;SDS011;43683;48.650;9.290;2024-03-08T01:32:45;27.98;;;14.55;;
57856;SDS011;43683;48.650;9.290;2024-03-08T01:35:10;28.42;;;16.33;;
57856;SDS011;43683;48.650;9.290;2024-03-08T01:37:36;26.85;;;15.07;;
57856;SDS011;43683;48.650;9.290;2024-03-08T01:40:02;32.25;;;16.75;;
57856;SDS011;43683;48.650;9.290;2024-03-08T01:42:28;24.60;;;14.60;;
57856;SDS011;43683;48.650;9.290;2024-03-08T01:44:54;28.45;;;15.25;;
57856;SDS011;43683;48.650;9.290;2024-03-08T01:47:19;27.65;;;15.40;;
57856;SDS011;43683;48.650;9.290;2024-03-08T01:49:51;25.00;;;13.95;;
57856;SDS011;43683;48.650;9.290;2024-03-08T01:52:17;29.42;;;14.82;;
57856;SDS011;43683;48.650;9.290;2024-03-08T01:54:45;25.38;;;14.55;;
57856;SDS011;43683;48.650;9.290;2024-03-08T01:57:11;28.73;;;14.93;;
57856;SDS011;43683;48.650;9.290;2024-03-08T01:59:38;30.10;;;16.67;;
57856;SDS011;43683;48.650;9.290;2024-03-08T02:02:05;29.03;;;14.37;;
57856;SDS011;43683;48.650;9.290;2024-03-08T02:04:33;29.20;;;15.52;;
57856;SDS011;43683;48.650;9.290;2024-03-08T02:07:01;29.02;;;15.52;;
57856;SDS011;43683;48.650;9.290;2024-03-08T02:09:27;29.13;;;15.10;;
57856;SDS011;43683;48.650;9.290;2024-03-08T02:11:52;29.55;;;14.95;;
57856;SDS011;43683;48.650;9.290;2024-03-08T02:14:19;25.97;;;13.33;;
57856;SDS011;43683;48.650;9.290;2024-03-08T02:16:45;25.95;;;14.85;;
57856;SDS011;43683;48.650;9.290;2024-03-08T02:19:10;28.25;;;14.52;;
57856;SDS011;43683;48.650;9.290;2024-03-08T02:21:36;25.02;;;14.82;;
57856;SDS011;43683;48.650;9.290;2024-03-08T02:24:03;27.58;;;14.90;;
57856;SDS011;43683;48.650;9.290;2024-03-08T02:26:29;25.23;;;13.65;;
57856;SDS011;43683;48.650;9.290;2024-03-08T02:28:54;25.05;;;13.98;;
57856;SDS011;43683;48.650;9.290;2024-03-08T02:31:20;27.10;;;13.80;;
57856;SDS011;43683;48.650;9.290;2024-03-08T02:33:46;25.70;;;12.48;;
57856;SDS011;43683;48.650;9.290;2024-03-08T02:36:12;26.85;;;13.30;;
57856;SDS011;43683;48.650;9.290;2024-03-08T02:38:38;26.73;;;14.57;;
57856;SDS011;43683;48.650;9.290;2024-03-08T02:41:05;30.25;;;14.60;;
57856;SDS011;43683;48.650;9.290;2024-03-08T02:43:31;24.02;;;13.43;;
57856;SDS011;43683;48.650;9.290;2024-03-08T02:45:57;24.88;;;13.32;;
57856;SDS011;43683;48.650;9.290;2024-03-08T02:48:22;23.25;;;13.55;;
57856;SDS011;43683;48.650;9.290;2024-03-08T02:50:48;22.10;;;13.50;;
57856;SDS011;43683;48.650;9.290;2024-03-08T02:53:13;24.52;;;13.52;;
57856;SDS011;43683;48.650;9.290;2024-03-08T02:55:39;24.70;;;13.93;;
57856;SDS011;43683;48.650;9.290;2024-03-08T02:58:06;24.08;;;14.20;;
57856;SDS011;43683;48.650;9.290;2024-03-08T03:00:35;25.90;;;14.27;;
57856;SDS011;43683;48.650;9.290;2024-03-08T03:03:01;23.55;;;13.13;;
57856;SDS011;43683;48.650;9.290;2024-03-08T03:05:28;24.73;;;13.70;;
57856;SDS011;43683;48.650;9.290;2024-03-08T03:07:54;24.90;;;13.07;;
57856;SDS011;43683;48.650;9.290;2024-03-08T03:10:20;24.73;;;14.60;;
57856;SDS011;43683;48.650;9.290;2024-03-08T03:12:49;27.63;;;14.65;;
57856;SDS011;43683;48.650;9.290;2024-03-08T03:15:15;22.50;;;12.98;;
57856;SDS011;43683;48.650;9.290;2024-03-08T03:17:47;24.85;;;14.23;;
57856;SDS011;43683;48.650;9.290;2024-03-08T03:20:13;24.27;;;12.80;;
57856;SDS011;43683;48.650;9.290;2024-03-08T03:22:39;25.27;;;14.32;;
57856;SDS011;43683;48.650;9.290;2024-03-08T03:25:06;24.90;;;14.63;;
57856;SDS011;43683;48.650;9.290;2024-03-08T03:27:34;24.08;;;14.70;;
57856;SDS011;43683;48.650;9.290;2024-03-08T03:30:00;29.67;;;13.80;;
57856;SDS011;43683;48.650;9.290;2024-03-08T03:32:45;24.10;;;14.02;;
57856;SDS011;43683;48.650;9.290;2024-03-08T03:35:12;23.00;;;13.68;;
57856;SDS011;43683;48.650;9.290;2024-03-08T03:37:39;22.55;;;13.02;;
57856;SDS011;43683;48.650;9.290;2024-03-08T03:40:07;24.33;;;13.55;;
57856;SDS011;43683;48.650;9.290;2024-03-08T03:42:33;28.42;;;14.95;;
57856;SDS011;43683;48.650;9.290;2024-03-08T03:44:59;24.58;;;14.40;;
57856;SDS011;43683;48.650;9.290;2024-03-08T03:47:25;27.60;;;15.57;;
57856;SDS011;43683;48.650;9.290;2024-03-08T03:49:51;27.20;;;15.20;;
57856;SDS011;43683;48.650;9.290;2024-03-08T03:52:18;24.92;;;15.02;;
57856;SDS011;43683;48.650;9.290;2024-03-08T03:54:44;27.15;;;15.35;;
57856;SDS011;43683;48.650;9.290;2024-03-08T03:57:09;27.98;;;14.02;;
57856;SDS011;43683;48.650;9.290;2024-03-08T03:59:35;29.02;;;14.73;;
57856;SDS011;43683;48.650;9.290;2024-03-08T04:02:01;24.60;;;14.23;;
57856;SDS011;43683;48.650;9.290;2024-03-08T04:04:28;28.17;;;14.80;;
57856;SDS011;43683;48.650;9.290;2024-03-08T04:06:54;28.88;;;15.00;;
57856;SDS011;43683;48.650;9.290;2024-03-08T04:09:19;23.38;;;13.93;;
57856;SDS011;43683;48.650;9.290;2024-03-08T04:11:47;29.10;;;15.25;;
57856;SDS011;43683;48.650;9.290;2024-03-08T04:14:13;27.17;;;15.45;;
57856;SDS011;43683;48.650;9.290;2024-03-08T04:16:38;28.15;;;16.10;;
57856;SDS011;43683;48.650;9.290;2024-03-08T04:19:04;27.27;;;15.48;;
57856;SDS011;43683;48.650;9.290;2024-03-08T04:21:30;24.90;;;13.70;;
57856;SDS011;43683;48.650;9.290;2024-03-08T04:23:55;28.42;;;15.45;;
57856;SDS011;43683;48.650;9.290;2024-03-08T04:26:21;29.65;;;15.18;;
57856;SDS011;43683;48.650;9.290;2024-03-08T04:28:47;25.25;;;14.85;;
57856;SDS011;43683;48.650;9.290;2024-03-08T04:31:12;27.27;;;15.77;;
57856;SDS011;43683;48.650;9.290;2024-03-08T04:33:38;29.15;;;14.85;;
57856;SDS011;43683;48.650;9.290;2024-03-08T04:36:03;25.33;;;15.18;;
57856;SDS011;43683;48.650;9.290;2024-03-08T04:38:29;27.55;;;15.20;;
57856;SDS011;43683;48.650;9.290;2024-03-08T04:40:55;29.10;;;17.20;;
57856;SDS011;43683;48.650;9.290;2024-03-08T04:43:22;29.63;;;16.83;;
57856;SDS011;43683;48.650;9.290;2024-03-08T04:45:51;32.53;;;16.85;;
57856;SDS011;43683;48.650;9.290;2024-03-08T04:48:17;30.75;;;16.33;;
57856;SDS011;43683;48.650;9.290;2024-03-08T04:50:43;30.45;;;17.10;;
57856;SDS011;43683;48.650;9.290;2024-03-08T04:53:09;30.30;;;16.73;;
57856;SDS011;43683;48.650;9.290;2024-03-08T04:55:35;28.52;;;15.63;;
57856;SDS011;43683;48.650;9.290;2024-03-08T04:58:02;28.05;;;15.88;;
57856;SDS011;43683;48.650;9.290;2024-03-08T05:00:29;27.27;;;14.60;;
57856;SDS011;43683;48.650;9.290;2024-03-08T05:02:55;31.85;;;16.17;;
57856;SDS011;43683;48.650;9.290;2024-03-08T05:05:20;30.88;;;15.98;;
57856;SDS011;43683;48.650;9.290;2024-03-08T05:07:47;29.90;;;16.63;;
57856;SDS011;43683;48.650;9.290;2024-03-08T05:10:13;28.40;;;16.10;;
57856;SDS011;43683;48.650;9.290;2024-03-08T05:12:42;31.52;;;15.75;;
57856;SDS011;43683;48.650;9.290;2024-03-08T05:15:08;30.13;;;16.30;;
57856;SDS011;43683;48.650;9.290;2024-03-08T05:17:33;29.77;;;16.73;;
57856;SDS011;43683;48.650;9.290;2024-03-08T05:19:59;28.27;;;16.50;;
57856;SDS011;43683;48.650;9.290;2024-03-08T05:22:24;31.95;;;16.77;;
57856;SDS011;43683;48.650;9.290;2024-03-08T05:24:51;30.23;;;16.98;;
57856;SDS011;43683;48.650;9.290;2024-03-08T05:27:17;31.10;;;17.05;;
57856;SDS011;43683;48.650;9.290;2024-03-08T05:29:43;31.15;;;15.43;;
57856;SDS011;43683;48.650;9.290;2024-03-08T05:32:08;29.60;;;16.67;;
57856;SDS011;43683;48.650;9.290;2024-03-08T05:34:35;31.10;;;16.33;;
57856;SDS011;43683;48.650;9.290;2024-03-08T05:37:01;33.35;;;17.33;;
57856;SDS011;43683;48.650;9.290;2024-03-08T05:39:27;30.30;;;17.95;;
57856;SDS011;43683;48.650;9.290;2024-03-08T05:41:52;35.80;;;19.48;;
57856;SDS011;43683;48.650;9.290;2024-03-08T05:44:20;32.95;;;19.35;;
57856;SDS011;43683;48.650;9.290;2024-03-08T05:46:45;37.17;;;18.65;;
57856;SDS011;43683;48.650;9.290;2024-03-08T05:49:14;33.38;;;17.83;;
57856;SDS011;43683;48.650;9.290;2024-03-08T05:51:40;36.90;;;19.95;;
57856;SDS011;43683;48.650;9.290;2024-03-08T05:54:06;34.88;;;19.30;;
57856;SDS011;43683;48.650;9.290;2024-03-08T05:56:36;31.30;;;17.88;;
57856;SDS011;43683;48.650;9.290;2024-03-08T05:59:03;34.78;;;17.58;;
57856;SDS011;43683;48.650;9.290;2024-03-08T06:01:29;32.92;;;18.60;;
57856;SDS011;43683;48.650;9.290;2024-03-08T06:04:01;40.85;;;20.15;;
57856;SDS011;43683;48.650;9.290;2024-03-08T06:06:27;35.05;;;18.92;;
57856;SDS011;43683;48.650;9.290;2024-03-08T06:08:53;36.13;;;18.25;;
57856;SDS011;43683;48.650;9.290;2024-03-08T06:11:21;38.17;;;20.13;;
57856;SDS011;43683;48.650;9.290;2024-03-08T06:13:47;38.17;;;19.27;;
57856;SDS011;43683;48.650;9.290;2024-03-08T06:16:13;35.13;;;20.58;;
57856;SDS011;43683;48.650;9.290;2024-03-08T06:18:39;36.65;;;19.08;;
57856;SDS011;43683;48.650;9.290;2024-03-08T06:21:04;36.55;;;18.35;;
57856;SDS011;43683;48.650;9.290;2024-03-08T06:23:33;37.10;;;19.90;;
57856;SDS011;43683;48.650;9.290;2024-03-08T06:26:03;35.90;;;19.02;;
57856;SDS011;43683;48.650;9.290;2024-03-08T06:28:29;42.45;;;19.33;;
57856;SDS011;43683;48.650;9.290;2024-03-08T06:30:55;40.88;;;20.42;;
57856;SDS011;43683;48.650;9.290;2024-03-08T06:33:21;40.65;;;20.35;;
57856;SDS011;43683;48.650;9.290;2024-03-08T06:35:46;38.17;;;19.05;;
57856;SDS011;43683;48.650;9.290;2024-03-08T06:38:12;37.97;;;17.52;;
57856;SDS011;43683;48.650;9.290;2024-03-08T06:40:37;35.80;;;18.58;;
57856;SDS011;43683;48.650;9.290;2024-03-08T06:43:03;32.88;;;17.73;;
57856;SDS011;43683;48.650;9.290;2024-03-08T06:45:31;32.13;;;17.13;;
57856;SDS011;43683;48.650;9.290;2024-03-08T06:47:57;27.33;;;15.38;;
57856;SDS011;43683;48.650;9.290;2024-03-08T06:50:23;29.58;;;16.40;;
57856;SDS011;43683;48.650;9.290;2024-03-08T06:52:48;32.58;;;16.98;;
57856;SDS011;43683;48.650;9.290;2024-03-08T06:55:18;31.23;;;16.42;;
57856;SDS011;43683;48.650;9.290;2024-03-08T06:57:44;27.30;;;15.20;;
57856;SDS011;43683;48.650;9.290;2024-03-08T07:00:10;26.25;;;14.90;;
57856;SDS011;43683;48.650;9.290;2024-03-08T07:02:40;25.30;;;15.18;;
57856;SDS011;43683;48.650;9.290;2024-03-08T07:05:06;27.77;;;15.18;;
57856;SDS011;43683;48.650;9.290;2024-03-08T07:07:35;23.15;;;13.52;;
57856;SDS011;43683;48.650;9.290;2024-03-08T07:10:01;28.00;;;14.90;;
57856;SDS011;43683;48.650;9.290;2024-03-08T07:12:26;24.63;;;14.07;;
57856;SDS011;43683;48.650;9.290;2024-03-08T07:14:52;24.42;;;14.57;;
57856;SDS011;43683;48.650;9.290;2024-03-08T07:17:18;27.90;;;15.70;;
57856;SDS011;43683;48.650;9.290;2024-03-08T07:19:43;29.38;;;14.77;;
57856;SDS011;43683;48.650;9.290;2024-03-08T07:22:10;25.73;;;16.05;;
57856;SDS011;43683;48.650;9.290;2024-03-08T07:24:36;24.45;;;13.48;;
57856;SDS011;43683;48.650;9.290;2024-03-08T07:27:35;23.13;;;13.43;;
57856;SDS011;43683;48.650;9.290;2024-03-08T07:30:01;25.55;;;12.93;;
57856;SDS011;43683;48.650;9.290;2024-03-08T07:32:27;22.42;;;13.18;;
57856;SDS011;43683;48.650;9.290;2024-03-08T07:34:55;27.52;;;14.57;;
57856;SDS011;43683;48.650;9.290;2024-03-08T07:37:22;23.30;;;13.05;;
57856;SDS011;43683;48.650;9.290;2024-03-08T07:39:48;25.07;;;14.37;;
57856;SDS011;43683;48.650;9.290;2024-03-08T07:42:15;24.65;;;13.65;;
57856;SDS011;43683;48.650;9.290;2024-03-08T07:44:42;23.13;;;12.98;;
57856;SDS011;43683;48.650;9.290;2024-03-08T07:47:08;25.20;;;14.07;;
57856;SDS011;43683;48.650;9.290;2024-03-08T07:49:37;23.63;;;13.70;;
57856;SDS011;43683;48.650;9.290;2024-03-08T07:52:04;24.73;;;13.68;;
57856;SDS011;43683;48.650;9.290;2024-03-08T07:54:30;26.23;;;13.10;;
57856;SDS011;43683;48.650;9.290;2024-03-08T07:56:55;23.40;;;13.32;;
57856;SDS011;43683;48.650;9.290;2024-03-08T07:59:21;20.77;;;12.65;;
57856;SDS011;43683;48.650;9.290;2024-03-08T08:01:47;21.83;;;12.07;;
57856;SDS011;43683;48.650;9.290;2024-03-08T08:04:12;20.83;;;12.05;;
57856;SDS011;43683;48.650;9.290;2024-03-08T08:06:39;22.07;;;14.10;;
57856;SDS011;43683;48.650;9.290;2024-03-08T08:09:08;21.20;;;12.35;;
57856;SDS011;43683;48.650;9.290;2024-03-08T08:11:42;24.83;;;13.50;;
57856;SDS011;43683;48.650;9.290;2024-03-08T08:14:09;23.50;;;12.52;;
57856;SDS011;43683;48.650;9.290;2024-03-08T08:16:35;24.40;;;12.25;;
57856;SDS011;43683;48.650;9.290;2024-03-08T08:19:05;22.08;;;12.25;;
57856;SDS011;43683;48.650;9.290;2024-03-08T08:21:35;22.15;;;11.30;;
57856;SDS011;43683;48.650;9.290;2024-03-08T08:24:02;21.13;;;12.73;;
57856;SDS011;43683;48.650;9.290;2024-03-08T08:26:28;20.75;;;12.45;;
57856;SDS011;43683;48.650;9.290;2024-03-08T08:28:54;22.45;;;13.43;;
57856;SDS011;43683;48.650;9.290;2024-03-08T08:31:21;19.48;;;12.02;;
57856;SDS011;43683;48.650;9.290;2024-03-08T08:33:47;24.48;;;12.52;;
57856;SDS011;43683;48.650;9.290;2024-03-08T08:36:17;21.15;;;12.70;;
57856;SDS011;43683;48.650;9.290;2024-03-08T08:38:43;20.77;;;12.00;;
57856;SDS011;43683;48.650;9.290;2024-03-08T08:41:09;22.02;;;11.88;;
57856;SDS011;43683;48.650;9.290;2024-03-08T08:43:36;21.25;;;12.77;;
57856;SDS011;43683;48.650;9.290;2024-03-08T08:46:04;19.85;;;11.75;;
57856;SDS011;43683;48.650;9.290;2024-03-08T08:48:30;20.17;;;12.27;;
57856;SDS011;43683;48.650;9.290;2024-03-08T08:50:57;19.98;;;12.02;;
57856;SDS011;43683;48.650;9.290;2024-03-08T08:53:23;20.65;;;11.73;;
57856;SDS011;43683;48.650;9.290;2024-03-08T08:55:49;19.58;;;11.77;;
57856;SDS011;43683;48.650;9.290;2024-03-08T08:58:15;18.23;;;10.05;;
57856;SDS011;43683;48.650;9.290;2024-03-08T09:00:41;18.17;;;11.48;;
57856;SDS011;43683;48.650;9.290;2024-03-08T09:03:09;23.42;;;12.20;;
57856;SDS011;43683;48.650;9.290;2024-03-08T09:05:36;21.15;;;11.55;;
57856;SDS011;43683;48.650;9.290;2024-03-08T09:08:02;17.55;;;10.75;;
57856;SDS011;43683;48.650;9.290;2024-03-08T09:10:28;19.20;;;11.52;;
57856;SDS011;43683;48.650;9.290;2024-03-08T09:12:55;19.27;;;10.88;;
57856;SDS011;43683;48.650;9.290;2024-03-08T09:15:20;16.70;;;10.65;;
57856;SDS011;43683;48.650;9.290;2024-03-08T09:17:46;17.42;;;11.10;;
57856;SDS011;43683;48.650;9.290;2024-03-08T09:20:13;16.95;;;9.57;;
57856;SDS011;43683;48.650;9.290;2024-03-08T09:22:40;19.58;;;10.93;;
57856;SDS011;43683;48.650;9.290;2024-03-08T09:25:09;21.60;;;12.15;;
57856;SDS011;43683;48.650;9.290;2024-03-08T09:27:35;17.02;;;10.23;;
57856;SDS011;43683;48.650;9.290;2024-03-08T09:30:01;18.83;;;11.15;;
57856;SDS011;43683;48.650;9.290;2024-03-08T09:32:27;17.92;;;10.63;;
57856;SDS011;43683;48.650;9.290;2024-03-08T09:34:53;18.63;;;11.50;;
57856;SDS011;43683;48.650;9.290;2024-03-08T09:37:20;19.92;;;11.55;;
57856;SDS011;43683;48.650;9.290;2024-03-08T09:39:46;17.88;;;11.13;;
57856;SDS011;43683;48.650;9.290;2024-03-08T09:42:14;17.48;;;11.27;;
57856;SDS011;43683;48.650;9.290;2024-03-08T09:44:47;18.95;;;10.55;;
57856;SDS011;43683;48.650;9.290;2024-03-08T09:47:13;19.02;;;11.10;;
57856;SDS011;43683;48.650;9.290;2024-03-08T09:49:39;17.63;;;9.70;;
57856;SDS011;43683;48.650;9.290;2024-03-08T09:52:06;19.50;;;10.63;;
57856;SDS011;43683;48.650;9.290;2024-03-08T09:54:32;17.80;;;9.90;;
57856;SDS011;43683;48.650;9.290;2024-03-08T09:56:58;20.25;;;10.77;;
57856;SDS011;43683;48.650;9.290;2024-03-08T09:59:24;17.13;;;10.63;;
57856;SDS011;43683;48.650;9.290;2024-03-08T10:01:52;18.80;;;11.18;;
57856;SDS011;43683;48.650;9.290;2024-03-08T10:04:21;16.52;;;10.02;;
57856;SDS011;43683;48.650;9.290;2024-03-08T10:06:47;17.92;;;11.35;;
57856;SDS011;43683;48.650;9.290;2024-03-08T10:09:13;17.30;;;9.68;;
57856;SDS011;43683;48.650;9.290;2024-03-08T10:11:42;19.73;;;10.57;;
57856;SDS011;43683;48.650;9.290;2024-03-08T10:14:08;17.70;;;10.82;;
57856;SDS011;43683;48.650;9.290;2024-03-08T10:16:34;16.52;;;9.90;;
57856;SDS011;43683;48.650;9.290;2024-03-08T10:19:00;18.33;;;10.20;;
57856;SDS011;43683;48.650;9.290;2024-03-08T10:21:26;16.30;;;10.63;;
57856;SDS011;43683;48.650;9.290;2024-03-08T10:23:52;17.15;;;10.70;;
57856;SDS011;43683;48.650;9.290;2024-03-08T10:26:17;17.13;;;9.68;;
57856;SDS011;43683;48.650;9.290;2024-03-08T10:28:47;17.38;;;10.32;;
57856;SDS011;43683;48.650;9.290;2024-03-08T10:31:14;16.30;;;8.63;;
57856;SDS011;43683;48.650;9.290;2024-03-08T10:33:40;16.13;;;10.93;;
57856;SDS011;43683;48.650;9.290;2024-03-08T10:36:09;19.25;;;10.68;;
57856;SDS011;43683;48.650;9.290;2024-03-08T10:38:36;17.05;;;10.05;;
57856;SDS011;43683;48.650;9.290;2024-03-08T10:41:07;17.48;;;10.65;;
57856;SDS011;43683;48.650;9.290;2024-03-08T10:44:09;16.85;;;9.65;;
57856;SDS011;43683;48.650;9.290;2024-03-08T10:46:43;15.15;;;10.02;;
57856;SDS011;43683;48.650;9.290;2024-03-08T10:49:30;15.70;;;9.27;;
57856;SDS011;43683;48.650;9.290;2024-03-08T10:51:59;17.63;;;10.82;;
57856;SDS011;43683;48.650;9.290;2024-03-08T10:54:28;17.60;;;10.80;;
57856;SDS011;43683;48.650;9.290;2024-03-08T10:56:56;17.15;;;10.30;;
57856;SDS011;43683;48.650;9.290;2024-03-08T10:59:23;16.55;;;9.85;;
57856;SDS011;43683;48.650;9.290;2024-03-08T11:01:52;17.83;;;10.50;;
57856;SDS011;43683;48.650;9.290;2024-03-08T11:04:18;15.48;;;9.90;;
57856;SDS011;43683;48.650;9.290;2024-03-08T11:06:47;15.32;;;9.75;;
57856;SDS011;43683;48.650;9.290;2024-03-08T11:09:28;16.45;;;9.45;;
57856;SDS011;43683;48.650;9.290;2024-03-08T11:12:39;14.68;;;9.57;;
57856;SDS011;43683;48.650;9.290;2024-03-08T11:14:47;17.08;;;10.27;;
57856;SDS011;43683;48.650;9.290;2024-03-08T11:17:15;14.80;;;9.45;;
57856;SDS011;43683;48.650;9.290;2024-03-08T11:19:46;15.55;;;8.75;;
57856;SDS011;43683;48.650;9.290;2024-03-08T11:22:20;17.27;;;10.43;;
57856;SDS011;43683;48.650;9.290;2024-03-08T11:24:48;16.00;;;9.95;;
57856;SDS011;43683;48.650;9.290;2024-03-08T11:27:14;15.23;;;9.35;;
57856;SDS011;43683;48.650;9.290;2024-03-08T11:29:40;16.27;;;10.80;;
57856;SDS011;43683;48.650;9.290;2024-03-08T11:32:10;17.10;;;10.00;;
57856;SDS011;43683;48.650;9.290;2024-03-08T11:34:47;16.38;;;9.77;;
57856;SDS011;43683;48.650;9.290;2024-03-08T11:37:15;15.38;;;10.35;;
57856;SDS011;43683;48.650;9.290;2024-03-08T11:39:53;20.25;;;11.98;;
57856;SDS011;43683;48.650;9.290;2024-03-08T11:42:24;16.92;;;10.27;;
57856;SDS011;43683;48.650;9.290;2024-03-08T11:44:51;15.50;;;10.00;;
57856;SDS011;43683;48.650;9.290;2024-03-08T11:47:18;16.77;;;10.30;;
57856;SDS011;43683;48.650;9.290;2024-03-08T11:49:44;14.80;;;9.75;;
57856;SDS011;43683;48.650;9.290;2024-03-08T11:52:12;14.43;;;9.90;;
57856;SDS011;43683;48.650;9.290;2024-03-08T11:54:39;16.08;;;10.00;;
57856;SDS011;43683;48.650;9.290;2024-03-08T11:57:06;17.42;;;10.18;;
57856;SDS011;43683;48.650;9.290;2024-03-08T11:59:31;15.43;;;10.77;;
57856;SDS011;43683;48.650;9.290;2024-03-08T12:02:06;19.75;;;12.13;;
57856;SDS011;43683;48.650;9.290;2024-03-08T12:04:35;16.73;;;11.25;;
57856;SDS011;43683;48.650;9.290;2024-03-08T12:07:01;18.02;;;10.85;;
57856;SDS011;43683;48.650;9.290;2024-03-08T12:09:28;17.20;;;10.88;;
57856;SDS011;43683;48.650;9.290;2024-03-08T12:11:54;16.23;;;11.07;;
57856;SDS011;43683;48.650;9.290;2024-03-08T12:14:19;16.88;;;10.70;;
57856;SDS011;43683;48.650;9.290;2024-03-08T12:16:45;17.73;;;10.95;;
57856;SDS011;43683;48.650;9.290;2024-03-08T12:19:11;17.15;;;10.32;;
57856;SDS011;43683;48.650;9.290;2024-03-08T12:21:37;15.40;;;9.98;;
57856;SDS011;43683;48.650;9.290;2024-03-08T12:24:09;17.08;;;11.10;;
57856;SDS011;43683;48.650;9.290;2024-03-08T12:26:36;17.92;;;10.40;;
57856;SDS011;43683;48.650;9.290;2024-03-08T12:31:45;16.50;;;10.10;;
57856;SDS011;43683;48.650;9.290;2024-03-08T12:34:11;20.30;;;11.52;;
57856;SDS011;43683;48.650;9.290;2024-03-08T12:36:43;17.70;;;11.05;;
57856;SDS011;43683;48.650;9.290;2024-03-08T12:39:19;17.20;;;10.35;;
57856;SDS011;43683;48.650;9.290;2024-03-08T12:41:51;17.98;;;10.98;;
57856;SDS011;43683;48.650;9.290;2024-03-08T12:44:21;17.85;;;11.48;;
57856;SDS011;43683;48.650;9.290;2024-03-08T12:46:47;17.20;;;11.02;;
57856;SDS011;43683;48.650;9.290;2024-03-08T12:49:13;17.00;;;10.00;;
57856;SDS011;43683;48.650;9.290;2024-03-08T12:51:42;19.80;;;11.73;;
57856;SDS011;43683;48.650;9.290;2024-03-08T12:54:09;17.80;;;10.77;;
57856;SDS011;43683;48.650;9.290;2024-03-08T12:56:35;17.98;;;11.40;;
57856;SDS011;43683;48.650;9.290;2024-03-08T12:59:02;18.45;;;10.70;;
57856;SDS011;43683;48.650;9.290;2024-03-08T13:01:33;19.02;;;10.90;;
57856;SDS011;43683;48.650;9.290;2024-03-08T13:04:02;17.88;;;11.70;;
57856;SDS011;43683;48.650;9.290;2024-03-08T13:06:28;18.70;;;11.90;;
57856;SDS011;43683;48.650;9.290;2024-03-08T13:08:55;18.67;;;11.10;;
57856;SDS011;43683;48.650;9.290;2024-03-08T13:11:22;22.92;;;11.23;;
57856;SDS011;43683;48.650;9.290;2024-03-08T13:13:51;17.38;;;10.73;;
57856;SDS011;43683;48.650;9.290;2024-03-08T13:16:19;18.60;;;10.98;;
57856;SDS011;43683;48.650;9.290;2024-03-08T13:18:45;18.70;;;11.52;;
57856;SDS011;43683;48.650;9.290;2024-03-08T13:21:13;18.35;;;10.93;;
57856;SDS011;43683;48.650;9.290;2024-03-08T13:23:40;19.55;;;11.38;;
57856;SDS011;43683;48.650;9.290;2024-03-08T13:26:10;19.02;;;11.23;;
57856;SDS011;43683;48.650;9.290;2024-03-08T13:28:41;17.95;;;10.95;;
57856;SDS011;43683;48.650;9.290;2024-03-08T13:31:08;19.63;;;10.48;;
57856;SDS011;43683;48.650;9.290;2024-03-08T13:33:35;20.15;;;11.68;;
57856;SDS011;43683;48.650;9.290;2024-03-08T13:36:11;17.60;;;11.13;;
57856;SDS011;43683;48.650;9.290;2024-03-08T13:38:46;20.25;;;12.00;;
57856;SDS011;43683;48.650;9.290;2024-03-08T13:43:40;18.00;;;10.38;;
57856;SDS011;43683;48.650;9.290;2024-03-08T13:46:06;16.85;;;10.27;;
57856;SDS011;43683;48.650;9.290;2024-03-08T13:48:33;19.58;;;9.90;;
57856;SDS011;43683;48.650;9.290;2024-03-08T13:50:58;18.95;;;10.85;;
57856;SDS011;43683;48.650;9.290;2024-03-08T13:53:26;17.27;;;9.95;;
57856;SDS011;43683;48.650;9.290;2024-03-08T13:55:52;18.42;;;9.90;;
57856;SDS011;43683;48.650;9.290;2024-03-08T13:58:17;18.40;;;10.32;;
57856;SDS011;43683;48.650;9.290;2024-03-08T14:00:45;16.17;;;9.88;;
57856;SDS011;43683;48.650;9.290;2024-03-08T14:05:41;17.63;;;10.18;;
57856;SDS011;43683;48.650;9.290;2024-03-08T14:08:07;19.00;;;10.68;;
57856;SDS011;43683;48.650;9.290;2024-03-08T14:10:37;21.13;;;11.30;;
57856;SDS011;43683;48.650;9.290;2024-03-08T14:13:03;17.63;;;10.98;;
57856;SDS011;43683;48.650;9.290;2024-03-08T14:15:32;20.88;;;10.30;;
57856;SDS011;43683;48.650;9.290;2024-03-08T14:17:59;13.60;;;9.20;;
57856;SDS011;43683;48.650;9.290;2024-03-08T14:20:26;19.13;;;10.82;;
57856;SDS011;43683;48.650;9.290;2024-03-08T14:22:52;17.08;;;10.77;;
57856;SDS011;43683;48.650;9.290;2024-03-08T14:25:21;18.45;;;11.35;;
57856;SDS011;43683;48.650;9.290;2024-03-08T14:27:48;20.30;;;11.10;;
57856;SDS011;43683;48.650;9.290;2024-03-08T14:30:15;17.25;;;10.93;;